Current Metar reports for airports in our Region

Nearby METAR Reports

Metar reports are mainly used by pilots for information on what is happening at their destination during their pre-flight weather briefings and by meteorologists to assist in short term forecasts. A raw Metar is one of the most universal ways to communicate weather information in the world and are usually transmitted by airports, but some come from permanent sanctioned weather observatories.

Listed below are Metars from airports within 100 miles of our station here in Smethport Pa. The first one of course is the Bradford Regional Airport, then the Olean NY airport and so on. Each airport has it's own table to display it's data and at the bottom of the table is 'Raw' Metar for each airport. Most pilots and weather forecasters can look at the raw data and tell you what is up, but we use a script that handles all of the details for us.

KBFD - Bradford, Pennsylvania, USA
Distance from station: NW 7mi, 11km
Updated: Fri, 19-Jan-2018 1:53pm EST
Clear
Clear
 Wind from SW
Wind: SW 8 mph , 13 km/h, Gust: 20 mph , 31 km/h
Temperature: 34°F , 1°C
Wind Chill: 27°F , -3°C
Dew Point: 18°F , -8°C
Humidity: 51%
Barometer: 29.89 inHg , 1012.2 hPa
Clouds: Clear
Visibility: 10 miles , 16 km
2018/01/19 18:53 KBFD 191853Z AUTO 23007G17KT 200V270 10SM CLR 01/M08 A2989 RMK AO2 SLP144 T00061078
KOLE - Olean, New York, USA
Distance from station: NNE 37mi, 59km
Updated: Fri, 19-Jan-2018 1:55pm EST
Clear
Clear
 Wind from WSW
Wind: WSW 7 mph , 11 km/h, Gust: 25 mph , 41 km/h
Temperature: 32°F , 0°C
Wind Chill: 25°F , -4°C
Dew Point: 18°F , -8°C
Humidity: 55%
Barometer: 29.84 inHg , 1010.5 hPa
Clouds: Clear
Visibility: 10 miles , 16 km
2018/01/19 18:55 KOLE 191855Z AUTO 24006G22KT 10SM CLR 00/M08 A2984 RMK AO2
 
KELZ - Wellsville, New York, USA
Distance from station: NE 40mi, 64km
Updated: Fri, 19-Jan-2018 1:56pm EST
Clear
Clear
 Wind from WSW
Wind: WSW 12 mph , 19 km/h, Gust: 21 mph , 33 km/h
Temperature: 36°F , 2°C
Wind Chill: 28°F , -2°C
Dew Point: 18°F , -8°C
Humidity: 48%
Barometer: 29.85 inHg , 1010.8 hPa
Clouds: Clear
Visibility: 10 miles , 16 km
2018/01/19 18:56 KELZ 191856Z AUTO 25010G18KT 210V290 10SM CLR 02/M08 A2985 RMK AO2 SLP134 T00221078 $
KDUJ - Du Bois, Pennsylvania, USA
Distance from station: SSW 42mi, 68km
Updated: Fri, 19-Jan-2018 1:53pm EST
Clear
Clear
 Wind from SW
Wind: SW 17 mph , 28 km/h, Gust: 26 mph , 43 km/h
Temperature: 30°F , -1°C
Wind Chill: 18°F , -8°C
Dew Point: 16°F , -9°C
Humidity: 55%
Barometer: 29.94 inHg , 1013.9 hPa
Clouds: Clear
Visibility: 10 miles , 16 km
2018/01/19 18:53 KDUJ 191853Z AUTO 23015G23KT 10SM CLR M01/M09 A2994 RMK AO2 SLP163 T10061094
 
KJHW - Jamestown, New York, USA
Distance from station: NW 46mi, 75km
Updated: Fri, 19-Jan-2018 1:56pm EST
Clear
Clear
 Wind from SSW
Wind: SSW 15 mph , 24 km/h
Temperature: 32°F , 0°C
Wind Chill: 22°F , -6°C
Dew Point: 18°F , -8°C
Humidity: 55%
Barometer: 29.88 inHg , 1011.9 hPa
Clouds: Clear
Visibility: 10 miles , 16 km
2018/01/19 18:56 KJHW 191856Z AUTO 21013KT 10SM CLR 00/M08 A2988 RMK AO2 SLP145 T00001083 FZRANO
KFIG - Clearfield, Pennsylvania, USA
Distance from station: S 47mi, 75km
Updated: Fri, 19-Jan-2018 1:54pm EST
Clear
Clear
 Wind from SW
Wind: SW 21 mph , 33 km/h, Gust: 30 mph , 48 km/h
Temperature: 36°F , 2°C
Wind Chill: 25°F , -4°C
Dew Point: 16°F , -9°C
Humidity: 44%
Barometer: 29.96 inHg , 1014.6 hPa
Clouds: Clear
Visibility: 10 miles , 16 km
2018/01/19 18:54 KFIG 191854Z AUTO 23018G26KT 10SM CLR 02/M09 A2996 RMK AO2 PK WND 23026/1853 SLP162 T00221089
 
KDKK - Dunkirk, New York, USA
Distance from station: NW 66mi, 106km
Updated: Fri, 19-Jan-2018 1:53pm EST
Clear
Clear
 Wind from SW
Wind: SW 17 mph , 28 km/h, Gust: 23 mph , 37 km/h
Temperature: 36°F , 2°C
Wind Chill: 26°F , -3°C
Dew Point: 19°F , -7°C
Humidity: 52%
Barometer: 29.91 inHg , 1012.9 hPa
Clouds: Clear
Visibility: 10 miles , 16 km
2018/01/19 18:53 KDKK 191853Z AUTO 22015G20KT 10SM CLR 02/M07 A2991 RMK AO2 SLP135 T00171067
KUNV - State College, Pennsylvania, USA
Distance from station: SSE 71mi, 114km
Updated: Fri, 19-Jan-2018 1:53pm EST
Clear
Clear
 Wind from WSW
Wind: WSW 14 mph , 22 km/h, Gust: 25 mph , 41 km/h
Temperature: 39°F , 4°C
Wind Chill: 31°F , -1°C
Dew Point: 21°F , -6°C
Humidity: 48%
Barometer: 29.96 inHg , 1014.6 hPa
Clouds: Clear
Visibility: 10 miles , 16 km
2018/01/19 18:53 KUNV 191853Z 24012G22KT 10SM SKC 04/M06 A2996
 
KFKL - Franklin, Pennsylvania, USA
Distance from station: WSW 72mi, 116km
Updated: Fri, 19-Jan-2018 1:56pm EST
Clear
Clear
 Wind from SSW
Wind: SSW 15 mph , 24 km/h
Temperature: 34°F , 1°C
Wind Chill: 24°F , -4°C
Dew Point: 18°F , -8°C
Humidity: 51%
Barometer: 29.95 inHg , 1014.2 hPa
Clouds: Clear
Visibility: 10 miles , 16 km
2018/01/19 18:56 KFKL 191856Z AUTO 20013KT 10SM CLR 01/M08 A2995 RMK AO2 SLP163 T00111083 FZRANO
KDSV - Dansville, New York, USA
Distance from station: NE 73mi, 117km
Updated: Fri, 19-Jan-2018 1:54pm EST
Clear
Clear
 Wind from S
Wind: S 5 mph , 7 km/h
Temperature: 37°F , 3°C
Wind Chill: 33°F , 1°C
Dew Point: 16°F , -9°C
Humidity: 41%
Barometer: 29.88 inHg , 1011.9 hPa
Clouds: Clear
Visibility: 10 miles , 16 km
2018/01/19 18:54 KDSV 191854Z AUTO 18004KT 10SM CLR 03/M09 A2988 RMK AO2 SLP134 T00281094
 
KIDI - Indiana/Stewart, Pennsylvania, USA
Distance from station: SSW 81mi, 130km
Updated: Fri, 19-Jan-2018 1:55pm EST
Clear
Clear
 Wind from SW
Wind: SW 17 mph , 28 km/h, Gust: 23 mph , 37 km/h
Temperature: 34°F , 1°C
Wind Chill: 23°F , -5°C
Dew Point: 18°F , -8°C
Humidity: 51%
Barometer: 30.04 inHg , 1017.3 hPa
Clouds: Clear
Visibility: 10 miles , 16 km
2018/01/19 18:55 KIDI 191855Z AUTO 23015G20KT 10SM CLR 01/M08 A3004 RMK A01
KBUF - Buffalo/Cheektow, New York, USA
Distance from station: N 84mi, 136km
Updated: Fri, 19-Jan-2018 1:54pm EST
Few Clouds
Few Clouds
 Wind from SW
Wind: SW 21 mph , 33 km/h, Gust: 30 mph , 48 km/h
Temperature: 32°F , 0°C
Wind Chill: 20°F , -7°C
Dew Point: 19°F , -7°C
Humidity: 60%
Barometer: 29.88 inHg , 1011.9 hPa
Clouds: Few Clouds
Visibility: 10 miles , 16 km
Cloud details: Few Clouds 18000 ft
Few Clouds 28000 ft
2018/01/19 18:54 KBUF 191854Z 23018G26KT 10SM FEW180 FEW280 00/M07 A2988 RMK AO2 PK WND 23032/1820 SLP126 T00001072
 
KGKJ - Meadville, Pennsylvania, USA
Distance from station: W 86mi, 138km
Updated: Fri, 19-Jan-2018 1:53pm EST
Clear
Clear
 Wind from SSW
Wind: SSW 16 mph , 26 km/h, Gust: 23 mph , 37 km/h
Temperature: 30°F , -1°C
Wind Chill: 19°F , -7°C
Dew Point: 18°F , -8°C
Humidity: 59%
Barometer: 29.93 inHg , 1013.5 hPa
Clouds: Clear
Visibility: 10 miles , 16 km
2018/01/19 18:53 KGKJ 191853Z AUTO 21014G20KT 10SM CLR M01/M08 A2993 RMK AO2 SLP153 T10061083
KERI - Erie, Pennsylvania, USA
Distance from station: WNW 87mi, 140km
Updated: Fri, 19-Jan-2018 1:51pm EST
Clear
Clear
 Wind from SSW
Wind: SSW 14 mph , 22 km/h, Gust: 24 mph , 39 km/h
Temperature: 34°F , 1°C
Wind Chill: 25°F , -4°C
Dew Point: 18°F , -8°C
Humidity: 51%
Barometer: 29.92 inHg , 1013.2 hPa
Clouds: Clear
Visibility: 10 miles , 16 km
2018/01/19 18:51 KERI 191851Z 20012G21KT 10SM CLR 01/M08 A2992 RMK AO2 SLP142 T00111078
 
KELM - Elmira, New York, USA
Distance from station: ENE 90mi, 145km
Updated: Fri, 19-Jan-2018 1:53pm EST
Clear
Clear
 Wind from WSW
Wind: WSW 8 mph , 13 km/h
Temperature: 37°F , 3°C
Wind Chill: 31°F , -1°C
Dew Point: 19°F , -7°C
Humidity: 48%
Barometer: 29.89 inHg , 1012.2 hPa
Clouds: Clear
Visibility: 10 miles , 16 km
2018/01/19 18:53 KELM 191853Z 24007KT 10SM CLR 03/M07 A2989 RMK AO2 SLP135 T00281072
KIPT - Williamsport, Pennsylvania, USA
Distance from station: ESE 91mi, 146km
Updated: Fri, 19-Jan-2018 1:54pm EST
Clear
Clear
 Wind from W
Wind: W 5 mph , 7 km/h
Temperature: 37°F , 3°C
Wind Chill: 33°F , 1°C
Dew Point: 18°F , -8°C
Humidity: 45%
Barometer: 29.97 inHg , 1014.9 hPa
Clouds: Clear
Visibility: 10 miles , 16 km
2018/01/19 18:54 KIPT 191854Z 28004KT 10SM CLR 03/M08 A2997 RMK AO2 SLP156 T00331078
 
KBTP - Butler Co., Pennsylvania, USA
Distance from station: SW 98mi, 157km
Updated: Fri, 19-Jan-2018 1:56pm EST
Clear
Clear
 Wind from S
Wind: S 12 mph , 19 km/h
Temperature: 34°F , 1°C
Wind Chill: 25°F , -4°C
Dew Point: 16°F , -9°C
Humidity: 48%
Barometer: 30.01 inHg , 1016.3 hPa
Clouds: Clear
Visibility: 10 miles , 16 km
2018/01/19 18:56 KBTP 191856Z AUTO 19010KT 10SM CLR 01/M09 A3001 RMK AO2 SLP182 T00111089 FZRANO
KAOO - Altoona, Pennsylvania, USA
Distance from station: S 99mi, 159km
Updated: Fri, 19-Jan-2018 1:53pm EST
Clear
Clear
 Wind from WSW
Wind: WSW 10 mph , 17 km/h, Gust: 21 mph , 33 km/h
Temperature: 41°F , 5°C
Wind Chill: 35°F , 2°C
Dew Point: 21°F , -6°C
Humidity: 45%
Barometer: 29.98 inHg , 1015.2 hPa
Clouds: Clear
Visibility: 10 miles , 16 km
2018/01/19 18:53 KAOO 191853Z AUTO 24009G18KT 10SM CLR 05/M06 A2998 RMK AO2 SLP165 T00501061
 
KPIT - Pittsburg, Pennsylvania, USA
Distance from station: SSW 126mi, 203km
Updated: Fri, 19-Jan-2018 1:51pm EST
Partly Cloudy
Partly Cloudy
 Wind from SW
Wind: SW 14 mph , 22 km/h
Temperature: 36°F , 2°C
Wind Chill: 27°F , -3°C
Dew Point: 16°F , -9°C
Humidity: 44%
Barometer: 30.02 inHg , 1016.6 hPa
Clouds: Partly Cloudy
Visibility: 10 miles , 16 km
Cloud details: Partly Cloudy 25000 ft
2018/01/19 18:51 KPIT 191851Z 22012KT 10SM SCT250 02/M09 A3002 RMK AO2 SLP185 T00171089
KCLE - Cleveland, Ohio, USA
Distance from station: WSW 160mi, 258km
Updated: Fri, 19-Jan-2018 1:51pm EST
Few Clouds
Few Clouds
 Wind from SSW
Wind: SSW 16 mph , 26 km/h
Temperature: 36°F , 2°C
Wind Chill: 26°F , -3°C
Dew Point: 18°F , -8°C
Humidity: 48%
Barometer: 29.97 inHg , 1014.9 hPa
Clouds: Few Clouds
Visibility: 10 miles , 16 km
Cloud details: Few Clouds 25000 ft
2018/01/19 18:51 KCLE 191851Z 20014KT 10SM FEW250 02/M08 A2997 RMK AO2 SLP154 T00221078